createdAt,value
2018-09-15T00:01:30.806Z,27.57
2018-09-15T00:04:01.475Z,26.63
2018-09-15T00:06:32.106Z,24.83
2018-09-15T00:09:02.729Z,23.40
2018-09-15T00:11:33.092Z,23.83
2018-09-15T00:14:03.930Z,23.13
2018-09-15T00:16:34.645Z,23.87
2018-09-15T00:19:05.229Z,22.93
2018-09-15T00:21:36.434Z,22.90
2018-09-15T00:24:07.557Z,23.90
2018-09-15T00:26:38.102Z,21.57
2018-09-15T00:29:10.196Z,22.00
2018-09-15T00:31:41.261Z,22.17
2018-09-15T00:34:12.079Z,20.43
2018-09-15T00:36:42.629Z,20.87
2018-09-15T00:39:13.484Z,20.57
2018-09-15T00:41:44.136Z,21.43
2018-09-15T00:44:14.561Z,21.57
2018-09-15T00:46:45.141Z,22.27
2018-09-15T00:49:15.668Z,22.10
2018-09-15T00:51:46.240Z,24.33
2018-09-15T00:54:17.407Z,24.83
2018-09-15T00:56:48.137Z,24.40
2018-09-15T00:59:18.665Z,25.37
2018-09-15T01:01:49.209Z,25.33
2018-09-15T01:04:20.027Z,26.70
2018-09-15T01:06:50.526Z,25.20
2018-09-15T01:09:20.810Z,25.60
2018-09-15T01:11:51.557Z,24.80
2018-09-15T01:14:22.194Z,23.40
2018-09-15T01:16:53.007Z,27.80
2018-09-15T01:19:23.565Z,26.70
2018-09-15T01:21:54.279Z,27.80
2018-09-15T01:24:25.036Z,27.47
2018-09-15T01:26:55.744Z,26.93
2018-09-15T01:29:26.320Z,29.80
2018-09-15T01:31:56.595Z,27.13
2018-09-15T01:34:27.616Z,29.30
2018-09-15T01:36:58.139Z,29.43
2018-09-15T01:39:28.991Z,28.17
2018-09-15T01:41:59.852Z,28.43
2018-09-15T01:44:31.011Z,27.97
2018-09-15T01:47:01.255Z,27.70
2018-09-15T01:49:32.280Z,26.43
2018-09-15T01:52:02.941Z,23.90
2018-09-15T01:54:33.563Z,24.27
2018-09-15T01:57:04.112Z,25.17
2018-09-15T01:59:34.633Z,24.83
2018-09-15T02:02:05.366Z,25.07
2018-09-15T02:04:35.781Z,25.33
2018-09-15T02:07:06.706Z,26.20
2018-09-15T02:09:37.242Z,26.83
2018-09-15T02:12:07.759Z,25.63
2018-09-15T02:14:39.003Z,25.53
2018-09-15T02:17:10.268Z,27.30
2018-09-15T02:19:41.048Z,27.00
2018-09-15T02:22:11.673Z,27.00
2018-09-15T02:24:42.248Z,28.87
2018-09-15T02:27:13.061Z,27.70
2018-09-15T02:29:44.544Z,28.63
2018-09-15T02:32:15.079Z,28.77
2018-09-15T02:34:45.626Z,31.73
2018-09-15T02:37:16.252Z,29.20
2018-09-15T02:39:46.938Z,29.70
2018-09-15T02:42:17.806Z,32.03
2018-09-15T02:44:48.382Z,29.20
2018-09-15T02:47:19.128Z,32.37
2018-09-15T02:49:49.665Z,30.40
2018-09-15T02:52:20.485Z,31.33
2018-09-15T02:54:50.955Z,30.80
2018-09-15T02:57:21.746Z,31.03
2018-09-15T02:59:52.089Z,29.13
2018-09-15T03:02:23.210Z,29.47
2018-09-15T03:04:54.260Z,27.80
2018-09-15T03:07:24.817Z,28.90
2018-09-15T03:09:55.315Z,28.47
2018-09-15T03:12:25.856Z,27.60
2018-09-15T03:14:56.659Z,27.40
2018-09-15T03:17:26.973Z,27.13
2018-09-15T03:19:57.503Z,30.30
2018-09-15T03:22:28.047Z,29.80
2018-09-15T03:24:58.632Z,28.57
2018-09-15T03:27:29.128Z,27.57
2018-09-15T03:30:00.138Z,28.70
2018-09-15T03:32:30.512Z,31.40
2018-09-15T03:35:01.040Z,31.77
2018-09-15T03:37:32.379Z,30.67
2018-09-15T03:40:04.824Z,31.70
2018-09-15T03:42:36.779Z,31.07
2018-09-15T03:45:09.168Z,31.80
2018-09-15T03:47:40.296Z,31.13
2018-09-15T03:50:10.834Z,29.80
2018-09-15T03:52:41.493Z,28.30
2018-09-15T03:55:12.937Z,29.27
2018-09-15T03:57:43.508Z,27.00
2018-09-15T04:00:14.934Z,26.10
2018-09-15T04:02:45.552Z,26.70
2018-09-15T04:05:16.880Z,24.50
2018-09-15T04:07:47.175Z,25.00
2018-09-15T04:10:18.003Z,24.37
2018-09-15T04:12:48.626Z,22.83
2018-09-15T04:15:21.175Z,23.70
2018-09-15T04:17:52.063Z,21.90
2018-09-15T04:20:23.876Z,21.03
2018-09-15T04:22:54.674Z,24.33
2018-09-15T04:25:25.527Z,23.13
2018-09-15T04:27:56.179Z,23.73
2018-09-15T04:30:26.808Z,21.70
2018-09-15T04:32:57.179Z,22.83
2018-09-15T04:35:27.707Z,21.80
2018-09-15T04:37:58.442Z,18.93
2018-09-15T04:40:28.712Z,23.07
2018-09-15T04:42:59.912Z,23.13
2018-09-15T04:45:30.623Z,23.30
2018-09-15T04:48:01.473Z,23.80
2018-09-15T04:50:31.732Z,23.13
2018-09-15T04:53:02.480Z,23.53
2018-09-15T04:55:33.048Z,24.27
2018-09-15T04:58:04.122Z,24.60
2018-09-15T05:00:34.543Z,23.33
2018-09-15T05:03:05.332Z,24.10
2018-09-15T05:05:35.904Z,24.47
2018-09-15T05:08:06.438Z,24.00
2018-09-15T05:10:36.939Z,24.17
2018-09-15T05:13:08.167Z,24.17
2018-09-15T05:15:39.471Z,22.83
2018-09-15T05:18:10.325Z,24.00
2018-09-15T05:20:41.424Z,21.97
2018-09-15T05:23:11.777Z,22.03
2018-09-15T05:25:42.499Z,20.93
2018-09-15T05:28:13.036Z,20.47
2018-09-15T05:30:43.804Z,21.83
2018-09-15T05:33:14.353Z,19.63
2018-09-15T05:35:44.947Z,20.03
2018-09-15T05:38:15.744Z,22.30
2018-09-15T05:40:46.303Z,21.30
2018-09-15T05:43:16.945Z,19.47
2018-09-15T05:45:48.463Z,21.30
2018-09-15T05:48:18.672Z,20.70
2018-09-15T05:50:49.878Z,20.90
2018-09-15T05:53:20.451Z,21.83
2018-09-15T05:55:51.083Z,22.50
2018-09-15T05:58:21.524Z,21.40
2018-09-15T06:00:54.210Z,21.73
2018-09-15T06:03:24.756Z,22.57
2018-09-15T06:05:55.041Z,22.77
2018-09-15T06:08:25.301Z,22.10
2018-09-15T06:10:55.839Z,20.63
2018-09-15T06:13:29.772Z,20.00
2018-09-15T06:16:00.638Z,20.93
2018-09-15T06:18:31.857Z,19.30
2018-09-15T06:21:02.415Z,19.70
2018-09-15T06:23:32.968Z,18.20
2018-09-15T06:26:04.396Z,20.40
2018-09-15T06:28:36.013Z,18.00
2018-09-15T06:31:07.225Z,19.03
2018-09-15T06:33:37.820Z,16.33
2018-09-15T06:36:08.085Z,17.70
2018-09-15T06:38:39.258Z,17.00
2018-09-15T06:41:09.757Z,16.17
2018-09-15T06:43:41.030Z,16.03
2018-09-15T06:46:11.741Z,15.83
2018-09-15T06:48:42.853Z,15.43
2018-09-15T06:51:13.098Z,15.77
2018-09-15T06:53:43.618Z,13.67
2018-09-15T06:56:14.460Z,14.03
2018-09-15T06:58:44.999Z,13.30
2018-09-15T07:01:15.240Z,13.50
2018-09-15T07:03:45.626Z,13.30
2018-09-15T07:06:16.466Z,12.20
2018-09-15T07:08:46.971Z,12.93
2018-09-15T07:11:18.549Z,13.83
2018-09-15T07:13:49.129Z,11.10
2018-09-15T07:16:19.968Z,11.77
2018-09-15T07:18:50.789Z,12.87
2018-09-15T07:21:21.610Z,11.50
2018-09-15T07:23:51.841Z,11.60
2018-09-15T07:26:22.664Z,10.90
2018-09-15T07:28:53.419Z,8.93
2018-09-15T07:31:24.125Z,9.30
2018-09-15T07:33:55.029Z,9.23
2018-09-15T07:36:25.550Z,8.97
2018-09-15T07:38:56.244Z,8.57
2018-09-15T07:41:27.119Z,7.93
2018-09-15T07:43:57.396Z,7.57
2018-09-15T07:46:27.827Z,7.70
2018-09-15T07:48:58.406Z,7.73
2018-09-15T07:51:28.927Z,6.73
2018-09-15T07:54:00.041Z,6.27
2018-09-15T07:56:30.298Z,6.70
2018-09-15T07:59:01.113Z,6.53
2018-09-15T08:01:32.232Z,6.30
2018-09-15T08:04:02.565Z,6.63
2018-09-15T08:06:34.277Z,6.63
2018-09-15T08:09:05.929Z,7.60
2018-09-15T08:11:39.525Z,6.47
2018-09-15T08:14:13.535Z,7.17
2018-09-15T08:16:44.672Z,7.00
2018-09-15T08:19:15.768Z,6.13
2018-09-15T08:21:47.061Z,5.70
2018-09-15T08:24:18.064Z,6.33
2018-09-15T08:26:48.739Z,5.90
2018-09-15T08:29:19.717Z,6.93
2018-09-15T08:31:50.705Z,7.17
2018-09-15T08:34:22.347Z,6.30
2018-09-15T08:36:57.411Z,6.67
2018-09-15T08:39:27.929Z,5.80
2018-09-15T08:41:58.453Z,5.70
2018-09-15T08:44:32.248Z,7.20
2018-09-15T08:47:03.257Z,6.10
2018-09-15T08:49:33.520Z,5.70
2018-09-15T08:52:04.072Z,5.40
2018-09-15T08:54:34.769Z,6.50
2018-09-15T08:57:05.659Z,5.53
2018-09-15T08:59:36.803Z,5.50
2018-09-15T09:02:14.097Z,5.50
2018-09-15T09:04:45.263Z,5.30
2018-09-15T09:07:15.830Z,5.17
2018-09-15T09:09:46.448Z,4.90
2018-09-15T09:12:17.001Z,5.07
2018-09-15T09:14:47.332Z,5.10
2018-09-15T09:17:17.898Z,5.47
2018-09-15T09:19:48.476Z,4.90
2018-09-15T09:22:18.993Z,4.73
2018-09-15T09:24:49.523Z,5.00
2018-09-15T09:27:20.100Z,5.00
2018-09-15T09:29:51.213Z,5.57
2018-09-15T09:32:21.974Z,5.40
2018-09-15T09:34:52.852Z,5.80
2018-09-15T09:37:23.400Z,5.30
2018-09-15T09:39:53.957Z,5.60
2018-09-15T09:42:25.012Z,4.70
2018-09-15T09:44:55.644Z,5.03
2018-09-15T09:47:26.444Z,4.63
2018-09-15T09:49:57.178Z,4.60
2018-09-15T09:52:27.399Z,4.27
2018-09-15T09:54:57.913Z,4.40
2018-09-15T09:57:28.111Z,4.60
2018-09-15T09:59:58.354Z,5.60
2018-09-15T10:02:28.633Z,5.47
2018-09-15T10:04:58.920Z,4.93
2018-09-15T10:07:29.426Z,5.17
2018-09-15T10:09:59.717Z,4.73
2018-09-15T10:12:30.384Z,4.80
2018-09-15T10:15:01.037Z,4.87
2018-09-15T10:17:31.775Z,4.40
2018-09-15T10:20:03.485Z,4.97
2018-09-15T10:22:34.467Z,3.83
2018-09-15T10:25:05.282Z,4.83
2018-09-15T10:27:35.810Z,4.43
2018-09-15T10:30:06.483Z,5.07
2018-09-15T10:32:37.455Z,5.00
2018-09-15T10:35:07.828Z,6.47
2018-09-15T10:37:38.061Z,5.07
2018-09-15T10:40:08.588Z,5.10
2018-09-15T10:42:39.244Z,5.43
2018-09-15T10:45:10.000Z,5.53
2018-09-15T10:47:40.655Z,5.03
2018-09-15T10:50:11.352Z,4.80
2018-09-15T10:52:42.009Z,4.80
2018-09-15T10:55:13.533Z,5.23
2018-09-15T10:57:44.032Z,5.50
2018-09-15T11:00:14.590Z,5.17
2018-09-15T11:02:47.030Z,4.97
2018-09-15T11:05:17.624Z,5.37
2018-09-15T11:07:48.160Z,5.50
2018-09-15T11:10:18.700Z,4.10
2018-09-15T11:12:49.292Z,4.73
2018-09-15T11:15:19.629Z,4.80
2018-09-15T11:17:50.207Z,3.80
2018-09-15T11:20:20.738Z,4.30
2018-09-15T11:22:51.517Z,4.37
2018-09-15T11:25:21.901Z,5.13
2018-09-15T11:27:52.454Z,4.20
2018-09-15T11:30:23.072Z,4.57
2018-09-15T11:32:53.627Z,4.40
2018-09-15T11:35:24.159Z,4.73
2018-09-15T11:37:54.689Z,3.97
2018-09-15T11:40:25.810Z,4.90
2018-09-15T11:42:56.487Z,4.00
2018-09-15T11:45:27.024Z,4.30
2018-09-15T11:47:57.544Z,4.40
2018-09-15T11:50:28.284Z,4.60
2018-09-15T11:52:59.383Z,5.73
2018-09-15T11:55:30.077Z,5.93
2018-09-15T11:58:00.579Z,5.23
2018-09-15T12:00:33.022Z,5.47
2018-09-15T12:03:03.556Z,5.43
2018-09-15T12:05:33.856Z,5.87
2018-09-15T12:08:04.092Z,6.57
2018-09-15T12:10:34.344Z,5.90
2018-09-15T12:13:05.010Z,5.67
2018-09-15T12:15:35.241Z,5.40
2018-09-15T12:18:06.186Z,5.60
2018-09-15T12:20:36.787Z,4.90
2018-09-15T12:23:07.552Z,4.73
2018-09-15T12:25:38.484Z,4.80
2018-09-15T12:28:08.692Z,4.30
2018-09-15T12:30:39.324Z,4.77
2018-09-15T12:33:09.865Z,4.67
2018-09-15T12:35:41.053Z,4.83
2018-09-15T12:38:12.312Z,4.50
2018-09-15T12:40:42.800Z,4.03
2018-09-15T12:43:13.279Z,3.60
2018-09-15T12:45:43.919Z,3.90
2018-09-15T12:48:14.420Z,4.63
2018-09-15T12:50:45.030Z,3.67
2018-09-15T12:53:15.311Z,4.87
2018-09-15T12:55:46.007Z,5.00
2018-09-15T12:58:20.041Z,4.30
2018-09-15T13:00:50.889Z,4.10
2018-09-15T13:03:21.443Z,4.00
2018-09-15T13:05:52.249Z,3.70
2018-09-15T13:08:22.811Z,4.60
2018-09-15T13:10:53.312Z,4.90
2018-09-15T13:13:24.033Z,4.40
2018-09-15T13:15:54.572Z,4.37
2018-09-15T13:18:25.450Z,5.60
2018-09-15T13:20:56.001Z,4.30
2018-09-15T13:23:26.745Z,4.60
2018-09-15T13:25:57.461Z,4.43
2018-09-15T13:28:28.079Z,4.60
2018-09-15T13:30:58.919Z,5.00
2018-09-15T13:33:29.476Z,5.30
2018-09-15T13:35:59.697Z,4.93
2018-09-15T13:38:30.362Z,5.20
2018-09-15T13:41:00.878Z,5.63
2018-09-15T13:43:31.147Z,5.53
2018-09-15T13:46:01.753Z,5.53
2018-09-15T13:48:32.311Z,6.97
2018-09-15T13:51:03.151Z,5.60
2018-09-15T13:53:35.581Z,5.50
2018-09-15T13:56:06.042Z,7.57
2018-09-15T13:58:36.700Z,7.00
2018-09-15T14:01:07.650Z,8.17
2018-09-15T14:03:38.380Z,7.67
2018-09-15T14:06:09.089Z,8.00
2018-09-15T14:08:39.377Z,7.13
2018-09-15T14:11:09.819Z,7.20
2018-09-15T14:13:40.283Z,6.87
2018-09-15T14:16:10.808Z,6.80
2018-09-15T14:18:41.505Z,6.03
2018-09-15T14:21:17.432Z,6.60
2018-09-15T14:23:47.659Z,7.30
2018-09-15T14:26:18.210Z,7.47
2018-09-15T14:28:48.726Z,5.90
2018-09-15T14:31:18.964Z,5.47
2018-09-15T14:33:49.483Z,6.13
2018-09-15T14:36:20.000Z,6.50
2018-09-15T14:38:50.508Z,6.53
2018-09-15T14:41:21.280Z,7.10
2018-09-15T14:43:51.979Z,7.77
2018-09-15T14:46:22.225Z,6.13
2018-09-15T14:48:52.768Z,7.10
2018-09-15T14:51:23.461Z,7.20
2018-09-15T14:53:53.942Z,6.73
2018-09-15T14:56:24.868Z,7.03
2018-09-15T14:58:55.567Z,7.50
2018-09-15T15:01:26.184Z,7.50
2018-09-15T15:03:56.682Z,7.17
2018-09-15T15:06:27.331Z,11.13
2018-09-15T15:08:58.214Z,9.40
2018-09-15T15:11:28.758Z,8.40
2018-09-15T15:13:59.000Z,8.80
2018-09-15T15:16:29.512Z,7.97
2018-09-15T15:19:00.023Z,7.70
2018-09-15T15:21:30.549Z,7.93
2018-09-15T15:24:01.593Z,7.53
2018-09-15T15:26:32.037Z,8.00
2018-09-15T15:29:02.391Z,8.50
2018-09-15T15:31:32.796Z,8.70
2018-09-15T15:34:03.477Z,8.87
2018-09-15T15:36:34.070Z,8.90
2018-09-15T15:39:05.062Z,7.60
2018-09-15T15:41:35.957Z,6.77
2018-09-15T15:44:06.585Z,7.73
2018-09-15T15:46:37.232Z,7.00
2018-09-15T15:49:07.985Z,6.80
2018-09-15T15:51:38.565Z,6.57
2018-09-15T15:54:09.533Z,7.00
2018-09-15T15:56:39.808Z,7.23
2018-09-15T15:59:14.210Z,7.70
2018-09-15T16:01:45.110Z,7.80
2018-09-15T16:04:15.875Z,8.03
2018-09-15T16:06:46.584Z,7.93
2018-09-15T16:09:17.135Z,8.50
2018-09-15T16:11:47.608Z,9.20
2018-09-15T16:14:18.963Z,8.80
2018-09-15T16:17:04.419Z,7.93
2018-09-15T16:19:34.972Z,8.20
2018-09-15T16:22:06.249Z,8.23
2018-09-15T16:24:36.776Z,7.53
2018-09-15T16:27:07.344Z,8.27
2018-09-15T16:29:37.892Z,8.00
2018-09-15T16:32:08.222Z,8.00
2018-09-15T16:34:38.992Z,7.40
2018-09-15T16:37:09.236Z,8.30
2018-09-15T16:39:39.878Z,7.90
2018-09-15T16:42:10.596Z,8.50
2018-09-15T16:44:41.449Z,10.23
2018-09-15T16:47:12.023Z,8.73
2018-09-15T16:49:42.585Z,10.20
2018-09-15T16:52:13.097Z,9.37
2018-09-15T16:54:43.847Z,9.50
2018-09-15T16:57:14.385Z,9.33
2018-09-15T16:59:45.390Z,8.30
2018-09-15T17:02:16.050Z,8.73
2018-09-15T17:04:46.579Z,9.07
2018-09-15T17:07:17.165Z,9.20
2018-09-15T17:09:48.572Z,9.20
2018-09-15T17:12:19.431Z,8.60
2018-09-15T17:14:50.371Z,9.00
2018-09-15T17:17:21.210Z,10.13
2018-09-15T17:19:52.049Z,9.50
2018-09-15T17:22:22.395Z,8.80
2018-09-15T17:24:53.100Z,9.57
2018-09-15T17:27:23.739Z,9.57
2018-09-15T17:29:54.330Z,9.13
2018-09-15T17:32:24.899Z,9.07
2018-09-15T17:34:55.908Z,9.50
2018-09-15T17:37:26.560Z,9.87
2018-09-15T17:39:57.563Z,8.73
2018-09-15T17:42:28.340Z,8.90
2018-09-15T17:44:58.871Z,10.00
2018-09-15T17:47:30.024Z,9.67
2018-09-15T17:50:00.308Z,9.20
2018-09-15T17:52:30.868Z,9.30
2018-09-15T17:55:01.619Z,9.27
2018-09-15T17:57:32.670Z,9.50
2018-09-15T18:00:04.185Z,9.40
2018-09-15T18:02:34.621Z,10.47
2018-09-15T18:05:06.239Z,10.70
2018-09-15T18:07:36.620Z,9.60
2018-09-15T18:10:07.585Z,10.37
2018-09-15T18:12:38.592Z,10.20
2018-09-15T18:15:10.175Z,10.10
2018-09-15T18:17:40.849Z,8.60
2018-09-15T18:20:11.507Z,10.17
2018-09-15T18:22:42.105Z,9.67
2018-09-15T18:25:12.385Z,8.30
2018-09-15T18:27:43.332Z,9.83
2018-09-15T18:30:14.192Z,10.63
2018-09-15T18:32:44.691Z,9.40
2018-09-15T18:35:15.417Z,9.37
2018-09-15T18:37:46.023Z,9.00
2018-09-15T18:40:16.535Z,9.70
2018-09-15T18:42:47.140Z,9.40
2018-09-15T18:45:17.983Z,8.63
2018-09-15T18:47:48.703Z,9.43
2018-09-15T18:50:19.438Z,9.30
2018-09-15T18:52:49.980Z,9.53
2018-09-15T18:55:20.620Z,9.47
2018-09-15T18:57:51.363Z,9.70
2018-09-15T19:00:23.059Z,8.60
2018-09-15T19:02:53.784Z,9.60
2018-09-15T19:05:24.329Z,8.50
2018-09-15T19:07:54.877Z,9.07
2018-09-15T19:10:25.741Z,9.30
2018-09-15T19:12:56.481Z,9.30
2018-09-15T19:15:26.926Z,8.70
2018-09-15T19:17:57.430Z,8.20
2018-09-15T19:20:27.980Z,8.67
2018-09-15T19:22:58.209Z,8.10
2018-09-15T19:25:29.413Z,9.17
2018-09-15T19:27:59.640Z,8.90
2018-09-15T19:30:29.955Z,9.23
2018-09-15T19:33:00.407Z,8.87
2018-09-15T19:35:30.986Z,7.93
2018-09-15T19:38:01.437Z,8.97
2018-09-15T19:40:31.974Z,8.10
2018-09-15T19:43:02.535Z,9.30
2018-09-15T19:45:34.379Z,8.33
2018-09-15T19:48:05.226Z,8.00
2018-09-15T19:50:36.149Z,9.50
2018-09-15T19:53:06.921Z,8.10
2018-09-15T19:55:37.466Z,8.03
2018-09-15T19:58:08.253Z,8.87
2018-09-15T20:00:38.992Z,8.23
2018-09-15T20:03:13.140Z,8.10
2018-09-15T20:05:44.571Z,9.93
2018-09-15T20:08:15.229Z,8.50
2018-09-15T20:10:45.715Z,8.83
2018-09-15T20:13:16.590Z,8.50
2018-09-15T20:15:45.933Z,8.27
2018-09-15T20:18:15.008Z,8.70
2018-09-15T20:20:45.286Z,8.93
2018-09-15T20:23:15.645Z,8.93
2018-09-15T20:25:46.211Z,8.33
2018-09-15T20:28:16.592Z,9.67
2018-09-15T20:30:47.176Z,8.93
2018-09-15T20:33:17.790Z,8.50
2018-09-15T20:35:48.420Z,8.80
2018-09-15T20:38:20.049Z,9.37
2018-09-15T20:40:50.631Z,8.87
2018-09-15T20:43:21.312Z,9.40
2018-09-15T20:45:51.904Z,9.23
2018-09-15T20:48:22.542Z,9.00
2018-09-15T20:50:54.145Z,8.33
2018-09-15T20:53:25.734Z,10.00
2018-09-15T20:55:56.757Z,10.17
2018-09-15T20:58:27.360Z,9.73
2018-09-15T21:00:57.740Z,9.90
2018-09-15T21:03:28.937Z,9.07
2018-09-15T21:05:59.611Z,8.37
2018-09-15T21:08:30.271Z,9.20
2018-09-15T21:11:00.666Z,8.30
2018-09-15T21:13:31.264Z,8.90
2018-09-15T21:16:01.919Z,8.20
2018-09-15T21:18:33.009Z,9.10
2018-09-15T21:21:03.752Z,8.80
2018-09-15T21:23:34.236Z,8.30
2018-09-15T21:26:05.192Z,8.97
2018-09-15T21:28:36.393Z,9.00
2018-09-15T21:31:07.065Z,9.30
2018-09-15T21:33:38.255Z,9.03
2018-09-15T21:36:09.110Z,8.87
2018-09-15T21:38:39.905Z,8.77
2018-09-15T21:41:10.467Z,9.00
2018-09-15T21:43:41.095Z,9.30
2018-09-15T21:46:11.934Z,9.00
2018-09-15T21:48:43.315Z,9.50
2018-09-15T21:51:16.947Z,9.30
2018-09-15T21:53:47.561Z,9.30
2018-09-15T21:56:18.151Z,9.23
2018-09-15T21:58:49.052Z,9.50
2018-09-15T22:01:19.668Z,9.63
2018-09-15T22:03:55.121Z,9.33
2018-09-15T22:06:25.709Z,10.30
2018-09-15T22:08:56.297Z,11.00
2018-09-15T22:11:26.967Z,9.70
2018-09-15T22:13:57.636Z,9.40
2018-09-15T22:16:28.426Z,8.80
2018-09-15T22:18:59.064Z,8.73
2018-09-15T22:21:29.884Z,9.97
2018-09-15T22:24:00.517Z,9.37
2018-09-15T22:26:31.252Z,9.13
2018-09-15T22:29:02.216Z,10.27
2018-09-15T22:31:33.307Z,10.13
2018-09-15T22:34:03.757Z,10.40
2018-09-15T22:36:34.612Z,9.63
2018-09-15T22:39:07.523Z,10.03
2018-09-15T22:41:39.009Z,9.87
2018-09-15T22:44:09.294Z,9.57
2018-09-15T22:46:39.820Z,8.87
2018-09-15T22:49:10.060Z,9.03
2018-09-15T22:51:40.902Z,9.77
2018-09-15T22:54:11.488Z,9.20
2018-09-15T22:56:42.854Z,9.33
2018-09-15T22:59:14.246Z,9.00
2018-09-15T23:01:44.752Z,9.50
2018-09-15T23:04:16.265Z,9.00
2018-09-15T23:06:46.709Z,9.30
2018-09-15T23:09:17.357Z,9.70
2018-09-15T23:11:47.644Z,8.93
2018-09-15T23:14:18.465Z,10.00
2018-09-15T23:16:49.057Z,9.33
2018-09-15T23:19:20.316Z,9.97
2018-09-15T23:21:50.892Z,8.90
2018-09-15T23:24:21.492Z,10.20
2018-09-15T23:26:52.301Z,9.63
2018-09-15T23:29:22.947Z,9.23
2018-09-15T23:31:53.171Z,11.00
2018-09-15T23:34:23.709Z,9.50
2018-09-15T23:36:54.348Z,10.20
2018-09-15T23:39:24.867Z,9.60
2018-09-15T23:41:55.439Z,9.97
2018-09-15T23:44:25.752Z,10.40
2018-09-15T23:46:56.220Z,9.97
2018-09-15T23:49:27.194Z,11.17
2018-09-15T23:51:57.695Z,11.00
2018-09-15T23:54:28.255Z,11.10
2018-09-15T23:56:59.004Z,10.20
2018-09-15T23:59:29.552Z,10.60
